sensor_id;sensor_type;location;lat;lon;timestamp;pressure;altitude;pressure_sealevel;temperature;humidity
21988;BME280;11158;53.404;-1.510;2023-01-29T00:00:21;101814.88;;;12.60;53.00
21988;BME280;11158;53.404;-1.510;2023-01-29T00:02:47;101807.59;;;12.36;53.73
21988;BME280;11158;53.404;-1.510;2023-01-29T00:05:13;101809.09;;;12.39;53.76
21988;BME280;11158;53.404;-1.510;2023-01-29T00:07:38;101801.81;;;12.73;52.52
21988;BME280;11158;53.404;-1.510;2023-01-29T00:10:04;101798.34;;;12.81;52.35
21988;BME280;11158;53.404;-1.510;2023-01-29T00:12:30;101798.66;;;12.19;53.50
21988;BME280;11158;53.404;-1.510;2023-01-29T00:14:56;101798.63;;;12.62;53.11
21988;BME280;11158;53.404;-1.510;2023-01-29T00:17:21;101795.50;;;12.99;52.20
21988;BME280;11158;53.404;-1.510;2023-01-29T00:19:48;101797.19;;;13.00;52.21
21988;BME280;11158;53.404;-1.510;2023-01-29T00:22:13;101789.44;;;12.72;52.59
21988;BME280;11158;53.404;-1.510;2023-01-29T00:24:39;101788.78;;;12.78;52.97
21988;BME280;11158;53.404;-1.510;2023-01-29T00:27:05;101780.25;;;12.99;52.14
21988;BME280;11158;53.404;-1.510;2023-01-29T00:29:31;101780.50;;;12.64;53.29
21988;BME280;11158;53.404;-1.510;2023-01-29T00:31:56;101772.88;;;13.02;52.47
21988;BME280;11158;53.404;-1.510;2023-01-29T00:34:22;101755.56;;;13.20;51.86
21988;BME280;11158;53.404;-1.510;2023-01-29T00:36:50;101765.97;;;13.07;52.17
21988;BME280;11158;53.404;-1.510;2023-01-29T00:39:15;101770.16;;;12.93;52.35
21988;BME280;11158;53.404;-1.510;2023-01-29T00:41:41;101763.75;;;12.70;53.06
21988;BME280;11158;53.404;-1.510;2023-01-29T00:44:25;101765.25;;;12.64;53.36
21988;BME280;11158;53.404;-1.510;2023-01-29T00:47:09;101758.59;;;12.76;52.92
21988;BME280;11158;53.404;-1.510;2023-01-29T00:50:09;101748.53;;;12.95;52.61
21988;BME280;11158;53.404;-1.510;2023-01-29T00:52:35;101744.50;;;12.74;52.80
21988;BME280;11158;53.404;-1.510;2023-01-29T00:55:03;101748.66;;;12.69;53.34
21988;BME280;11158;53.404;-1.510;2023-01-29T00:57:31;101736.13;;;12.86;52.82
21988;BME280;11158;53.404;-1.510;2023-01-29T00:59:57;101735.09;;;13.03;52.55
21988;BME280;11158;53.404;-1.510;2023-01-29T01:02:23;101734.72;;;12.57;53.22
21988;BME280;11158;53.404;-1.510;2023-01-29T01:05:11;101724.03;;;12.82;53.09
21988;BME280;11158;53.404;-1.510;2023-01-29T01:07:48;101729.91;;;12.85;53.01
21988;BME280;11158;53.404;-1.510;2023-01-29T01:10:20;101718.00;;;12.71;53.37
21988;BME280;11158;53.404;-1.510;2023-01-29T01:13:02;101712.13;;;12.92;53.05
21988;BME280;11158;53.404;-1.510;2023-01-29T01:15:31;101708.63;;;12.92;52.84
21988;BME280;11158;53.404;-1.510;2023-01-29T01:17:59;101703.25;;;12.92;52.85
21988;BME280;11158;53.404;-1.510;2023-01-29T01:20:26;101695.50;;;13.05;52.60
21988;BME280;11158;53.404;-1.510;2023-01-29T01:22:54;101699.03;;;12.97;52.87
21988;BME280;11158;53.404;-1.510;2023-01-29T01:25:21;101690.66;;;13.00;52.75
21988;BME280;11158;53.404;-1.510;2023-01-29T01:27:47;101684.78;;;12.40;54.06
21988;BME280;11158;53.404;-1.510;2023-01-29T01:30:16;101691.94;;;12.31;54.72
21988;BME280;11158;53.404;-1.510;2023-01-29T01:32:42;101683.59;;;12.42;54.17
21988;BME280;11158;53.404;-1.510;2023-01-29T01:35:11;101680.09;;;12.74;53.21
21988;BME280;11158;53.404;-1.510;2023-01-29T01:37:42;101677.41;;;12.99;52.63
21988;BME280;11158;53.404;-1.510;2023-01-29T01:40:13;101680.06;;;13.07;52.38
21988;BME280;11158;53.404;-1.510;2023-01-29T01:42:44;101670.38;;;12.90;52.16
21988;BME280;11158;53.404;-1.510;2023-01-29T01:45:27;101670.72;;;12.78;53.05
21988;BME280;11158;53.404;-1.510;2023-01-29T01:47:55;101682.22;;;12.30;53.71
21988;BME280;11158;53.404;-1.510;2023-01-29T01:50:40;101686.44;;;11.56;56.16
21988;BME280;11158;53.404;-1.510;2023-01-29T01:53:13;101682.25;;;11.01;57.45
21988;BME280;11158;53.404;-1.510;2023-01-29T01:55:44;101683.97;;;10.84;58.01
21988;BME280;11158;53.404;-1.510;2023-01-29T01:58:23;101694.81;;;10.82;59.10
21988;BME280;11158;53.404;-1.510;2023-01-29T02:00:52;101679.13;;;10.87;58.75
21988;BME280;11158;53.404;-1.510;2023-01-29T02:03:19;101686.53;;;10.94;58.52
21988;BME280;11158;53.404;-1.510;2023-01-29T02:06:05;101674.78;;;10.86;58.47
21988;BME280;11158;53.404;-1.510;2023-01-29T02:09:00;101679.72;;;10.99;58.49
21988;BME280;11158;53.404;-1.510;2023-01-29T02:11:47;101677.41;;;10.60;59.82
21988;BME280;11158;53.404;-1.510;2023-01-29T02:14:13;101665.84;;;11.22;58.36
21988;BME280;11158;53.404;-1.510;2023-01-29T02:16:39;101666.59;;;11.32;57.95
21988;BME280;11158;53.404;-1.510;2023-01-29T02:25:02;101661.22;;;11.66;57.69
21988;BME280;11158;53.404;-1.510;2023-01-29T02:27:45;101660.91;;;11.35;57.42
21988;BME280;11158;53.404;-1.510;2023-01-29T02:30:22;101656.53;;;10.82;59.29
21988;BME280;11158;53.404;-1.510;2023-01-29T02:33:00;101654.91;;;10.89;58.94
21988;BME280;11158;53.404;-1.510;2023-01-29T02:35:49;101645.41;;;10.51;60.25
21988;BME280;11158;53.404;-1.510;2023-01-29T02:38:33;101644.13;;;11.25;58.72
21988;BME280;11158;53.404;-1.510;2023-01-29T02:46:49;101640.84;;;11.39;56.93
21988;BME280;11158;53.404;-1.510;2023-01-29T02:51:44;101639.81;;;11.66;55.56
21988;BME280;11158;53.404;-1.510;2023-01-29T02:54:20;101622.84;;;12.00;55.31
21988;BME280;11158;53.404;-1.510;2023-01-29T02:57:17;101628.59;;;11.71;55.89
21988;BME280;11158;53.404;-1.510;2023-01-29T02:59:59;101627.03;;;11.94;55.48
21988;BME280;11158;53.404;-1.510;2023-01-29T03:02:37;101608.28;;;11.94;55.51
21988;BME280;11158;53.404;-1.510;2023-01-29T03:05:10;101613.44;;;11.45;56.86
21988;BME280;11158;53.404;-1.510;2023-01-29T03:07:41;101617.22;;;11.69;55.90
21988;BME280;11158;53.404;-1.510;2023-01-29T03:12:43;101611.63;;;11.97;54.88
21988;BME280;11158;53.404;-1.510;2023-01-29T03:15:16;101606.00;;;12.41;53.66
21988;BME280;11158;53.404;-1.510;2023-01-29T03:18:00;101615.19;;;12.71;52.70
21988;BME280;11158;53.404;-1.510;2023-01-29T03:20:31;101613.03;;;12.50;52.69
21988;BME280;11158;53.404;-1.510;2023-01-29T03:23:26;101616.13;;;11.88;54.68
21988;BME280;11158;53.404;-1.510;2023-01-29T03:26:14;101610.53;;;12.40;53.45
21988;BME280;11158;53.404;-1.510;2023-01-29T03:29:00;101614.72;;;12.51;52.64
21988;BME280;11158;53.404;-1.510;2023-01-29T03:31:47;101610.50;;;12.48;51.69
21988;BME280;11158;53.404;-1.510;2023-01-29T03:34:30;101617.34;;;12.18;52.31
21988;BME280;11158;53.404;-1.510;2023-01-29T03:37:10;101607.97;;;12.22;52.01
21988;BME280;11158;53.404;-1.510;2023-01-29T03:39:39;101602.97;;;12.76;50.66
21988;BME280;11158;53.404;-1.510;2023-01-29T03:48:38;101584.50;;;12.00;50.64
21988;BME280;11158;53.404;-1.510;2023-01-29T03:51:18;101587.75;;;11.77;50.45
21988;BME280;11158;53.404;-1.510;2023-01-29T03:53:55;101584.31;;;11.93;50.73
21988;BME280;11158;53.404;-1.510;2023-01-29T04:01:54;101584.97;;;11.87;49.75
21988;BME280;11158;53.404;-1.510;2023-01-29T04:04:37;101574.53;;;11.25;50.80
21988;BME280;11158;53.404;-1.510;2023-01-29T04:07:12;101563.25;;;11.98;49.48
21988;BME280;11158;53.404;-1.510;2023-01-29T04:09:46;101555.03;;;12.08;48.77
21988;BME280;11158;53.404;-1.510;2023-01-29T04:12:17;101551.53;;;12.32;48.75
21988;BME280;11158;53.404;-1.510;2023-01-29T04:14:45;101552.38;;;12.49;48.10
21988;BME280;11158;53.404;-1.510;2023-01-29T04:17:17;101541.22;;;12.85;47.56
21988;BME280;11158;53.404;-1.510;2023-01-29T04:19:45;101541.63;;;12.57;47.95
21988;BME280;11158;53.404;-1.510;2023-01-29T04:22:33;101547.63;;;12.75;47.40
21988;BME280;11158;53.404;-1.510;2023-01-29T04:25:08;101546.28;;;12.88;47.26
21988;BME280;11158;53.404;-1.510;2023-01-29T04:28:04;101535.13;;;13.07;47.05
21988;BME280;11158;53.404;-1.510;2023-01-29T04:33:40;101530.41;;;12.29;48.49
21988;BME280;11158;53.404;-1.510;2023-01-29T04:39:06;101530.25;;;11.39;50.68
21988;BME280;11158;53.404;-1.510;2023-01-29T04:44:31;101520.81;;;11.18;51.17
21988;BME280;11158;53.404;-1.510;2023-01-29T04:47:27;101518.69;;;10.43;53.22
21988;BME280;11158;53.404;-1.510;2023-01-29T04:52:49;101503.41;;;10.80;52.70
21988;BME280;11158;53.404;-1.510;2023-01-29T04:55:31;101491.97;;;10.69;53.33
21988;BME280;11158;53.404;-1.510;2023-01-29T05:00:48;101495.34;;;10.27;53.03
21988;BME280;11158;53.404;-1.510;2023-01-29T05:03:19;101492.16;;;10.06;54.03
21988;BME280;11158;53.404;-1.510;2023-01-29T05:05:47;101497.72;;;10.31;53.07
21988;BME280;11158;53.404;-1.510;2023-01-29T05:08:19;101487.75;;;10.59;53.13
21988;BME280;11158;53.404;-1.510;2023-01-29T05:10:47;101480.97;;;10.73;52.75
21988;BME280;11158;53.404;-1.510;2023-01-29T05:13:14;101477.69;;;10.87;52.12
21988;BME280;11158;53.404;-1.510;2023-01-29T05:15:49;101480.06;;;10.64;52.52
21988;BME280;11158;53.404;-1.510;2023-01-29T05:18:17;101478.09;;;11.08;51.42
21988;BME280;11158;53.404;-1.510;2023-01-29T05:20:43;101479.81;;;10.83;51.81
21988;BME280;11158;53.404;-1.510;2023-01-29T05:23:14;101484.63;;;11.06;51.42
21988;BME280;11158;53.404;-1.510;2023-01-29T05:25:40;101475.06;;;11.03;51.40
21988;BME280;11158;53.404;-1.510;2023-01-29T05:28:05;101463.97;;;11.32;50.82
21988;BME280;11158;53.404;-1.510;2023-01-29T05:30:35;101465.34;;;11.61;49.89
21988;BME280;11158;53.404;-1.510;2023-01-29T05:33:03;101459.53;;;11.74;49.07
21988;BME280;11158;53.404;-1.510;2023-01-29T05:35:29;101458.19;;;11.62;49.65
21988;BME280;11158;53.404;-1.510;2023-01-29T05:37:55;101456.50;;;11.69;49.30
21988;BME280;11158;53.404;-1.510;2023-01-29T05:40:22;101445.38;;;11.23;49.96
21988;BME280;11158;53.404;-1.510;2023-01-29T05:42:48;101448.94;;;10.89;50.47
21988;BME280;11158;53.404;-1.510;2023-01-29T05:45:16;101450.63;;;10.30;52.64
21988;BME280;11158;53.404;-1.510;2023-01-29T05:47:44;101448.03;;;10.38;52.61
21988;BME280;11158;53.404;-1.510;2023-01-29T05:50:10;101442.22;;;10.24;52.23
21988;BME280;11158;53.404;-1.510;2023-01-29T05:52:36;101435.97;;;10.68;52.12
21988;BME280;11158;53.404;-1.510;2023-01-29T05:55:02;101437.22;;;10.47;52.00
21988;BME280;11158;53.404;-1.510;2023-01-29T05:57:28;101438.44;;;10.96;51.22
21988;BME280;11158;53.404;-1.510;2023-01-29T05:59:53;101430.16;;;10.73;51.05
21988;BME280;11158;53.404;-1.510;2023-01-29T06:02:19;101437.97;;;9.96;52.89
21988;BME280;11158;53.404;-1.510;2023-01-29T06:04:46;101435.97;;;10.34;52.10
21988;BME280;11158;53.404;-1.510;2023-01-29T06:07:12;101426.34;;;9.79;53.56
21988;BME280;11158;53.404;-1.510;2023-01-29T06:09:37;101432.47;;;9.08;55.40
21988;BME280;11158;53.404;-1.510;2023-01-29T06:12:04;101433.63;;;9.23;56.17
21988;BME280;11158;53.404;-1.510;2023-01-29T06:14:31;101418.03;;;9.64;54.42
21988;BME280;11158;53.404;-1.510;2023-01-29T06:16:56;101417.03;;;9.65;54.85
21988;BME280;11158;53.404;-1.510;2023-01-29T06:19:22;101411.84;;;8.82;56.50
21988;BME280;11158;53.404;-1.510;2023-01-29T06:21:48;101408.63;;;9.06;56.48
21988;BME280;11158;53.404;-1.510;2023-01-29T06:24:13;101412.47;;;9.21;55.38
21988;BME280;11158;53.404;-1.510;2023-01-29T06:26:39;101400.09;;;9.20;56.15
21988;BME280;11158;53.404;-1.510;2023-01-29T06:29:08;101404.47;;;9.39;55.10
21988;BME280;11158;53.404;-1.510;2023-01-29T06:31:33;101405.22;;;9.50;55.37
21988;BME280;11158;53.404;-1.510;2023-01-29T06:33:59;101405.38;;;9.48;55.65
21988;BME280;11158;53.404;-1.510;2023-01-29T06:36:24;101409.34;;;9.26;56.16
21988;BME280;11158;53.404;-1.510;2023-01-29T06:38:50;101409.41;;;9.52;56.05
21988;BME280;11158;53.404;-1.510;2023-01-29T06:41:17;101410.19;;;9.62;54.91
21988;BME280;11158;53.404;-1.510;2023-01-29T06:43:45;101414.25;;;10.37;53.13
21988;BME280;11158;53.404;-1.510;2023-01-29T06:46:11;101414.91;;;9.69;54.59
21988;BME280;11158;53.404;-1.510;2023-01-29T06:48:36;101414.28;;;9.75;54.68
21988;BME280;11158;53.404;-1.510;2023-01-29T06:51:04;101416.09;;;9.92;54.12
21988;BME280;11158;53.404;-1.510;2023-01-29T06:53:32;101405.59;;;9.55;54.40
21988;BME280;11158;53.404;-1.510;2023-01-29T06:55:58;101400.94;;;9.03;56.13
21988;BME280;11158;53.404;-1.510;2023-01-29T06:58:24;101387.25;;;8.60;57.71
21988;BME280;11158;53.404;-1.510;2023-01-29T07:00:51;101387.63;;;8.75;57.33
21988;BME280;11158;53.404;-1.510;2023-01-29T07:03:17;101388.38;;;9.31;55.93
21988;BME280;11158;53.404;-1.510;2023-01-29T07:05:42;101387.44;;;10.02;53.56
21988;BME280;11158;53.404;-1.510;2023-01-29T07:08:08;101391.03;;;10.11;52.99
21988;BME280;11158;53.404;-1.510;2023-01-29T07:10:36;101397.38;;;10.10;53.04
21988;BME280;11158;53.404;-1.510;2023-01-29T07:13:02;101403.53;;;10.29;51.98
21988;BME280;11158;53.404;-1.510;2023-01-29T07:15:28;101402.59;;;10.38;51.99
21988;BME280;11158;53.404;-1.510;2023-01-29T07:17:58;101384.38;;;10.41;51.47
21988;BME280;11158;53.404;-1.510;2023-01-29T07:20:26;101383.13;;;10.62;50.77
21988;BME280;11158;53.404;-1.510;2023-01-29T07:22:53;101374.72;;;10.22;51.79
21988;BME280;11158;53.404;-1.510;2023-01-29T07:25:21;101378.75;;;9.02;55.15
21988;BME280;11158;53.404;-1.510;2023-01-29T07:27:46;101370.44;;;9.06;54.79
21988;BME280;11158;53.404;-1.510;2023-01-29T07:30:13;101376.31;;;9.27;54.94
21988;BME280;11158;53.404;-1.510;2023-01-29T07:32:39;101376.81;;;8.95;54.89
21988;BME280;11158;53.404;-1.510;2023-01-29T07:35:05;101381.56;;;9.55;53.14
21988;BME280;11158;53.404;-1.510;2023-01-29T07:37:31;101390.88;;;9.15;53.67
21988;BME280;11158;53.404;-1.510;2023-01-29T07:39:57;101390.63;;;9.62;52.33
21988;BME280;11158;53.404;-1.510;2023-01-29T07:42:23;101388.38;;;9.67;52.03
21988;BME280;11158;53.404;-1.510;2023-01-29T07:44:49;101385.34;;;10.14;50.70
21988;BME280;11158;53.404;-1.510;2023-01-29T07:47:14;101378.59;;;10.02;51.10
21988;BME280;11158;53.404;-1.510;2023-01-29T07:49:41;101375.94;;;9.58;51.60
21988;BME280;11158;53.404;-1.510;2023-01-29T07:52:07;101372.03;;;9.70;52.11
21988;BME280;11158;53.404;-1.510;2023-01-29T07:54:33;101368.66;;;10.38;50.10
21988;BME280;11158;53.404;-1.510;2023-01-29T07:56:59;101367.13;;;10.70;48.92
21988;BME280;11158;53.404;-1.510;2023-01-29T07:59:24;101361.16;;;9.46;51.65
21988;BME280;11158;53.404;-1.510;2023-01-29T08:01:50;101363.06;;;9.35;52.20
21988;BME280;11158;53.404;-1.510;2023-01-29T08:04:16;101351.47;;;9.09;52.78
21988;BME280;11158;53.404;-1.510;2023-01-29T08:06:42;101355.94;;;8.90;53.10
21988;BME280;11158;53.404;-1.510;2023-01-29T08:09:07;101352.91;;;8.85;53.92
21988;BME280;11158;53.404;-1.510;2023-01-29T08:11:33;101348.78;;;8.73;53.39
21988;BME280;11158;53.404;-1.510;2023-01-29T08:14:01;101333.47;;;8.93;53.98
21988;BME280;11158;53.404;-1.510;2023-01-29T08:16:26;101343.53;;;8.99;54.25
21988;BME280;11158;53.404;-1.510;2023-01-29T08:18:52;101339.19;;;9.34;52.95
21988;BME280;11158;53.404;-1.510;2023-01-29T08:21:18;101334.91;;;8.87;54.25
21988;BME280;11158;53.404;-1.510;2023-01-29T08:23:43;101312.09;;;9.02;53.92
21988;BME280;11158;53.404;-1.510;2023-01-29T08:26:10;101317.50;;;9.55;52.66
21988;BME280;11158;53.404;-1.510;2023-01-29T08:28:36;101333.41;;;9.38;53.19
21988;BME280;11158;53.404;-1.510;2023-01-29T08:31:03;101319.81;;;8.78;53.75
21988;BME280;11158;53.404;-1.510;2023-01-29T08:33:29;101321.13;;;9.28;52.76
21988;BME280;11158;53.404;-1.510;2023-01-29T08:35:55;101319.91;;;9.04;53.09
21988;BME280;11158;53.404;-1.510;2023-01-29T08:38:20;101313.13;;;8.92;53.00
21988;BME280;11158;53.404;-1.510;2023-01-29T08:40:46;101312.22;;;8.83;53.80
21988;BME280;11158;53.404;-1.510;2023-01-29T08:43:13;101316.34;;;9.31;52.56
21988;BME280;11158;53.404;-1.510;2023-01-29T08:45:42;101324.13;;;9.69;51.57
21988;BME280;11158;53.404;-1.510;2023-01-29T08:48:08;101314.56;;;8.86;54.39
21988;BME280;11158;53.404;-1.510;2023-01-29T08:50:35;101334.44;;;7.99;56.40
21988;BME280;11158;53.404;-1.510;2023-01-29T08:53:03;101326.53;;;8.82;54.65
21988;BME280;11158;53.404;-1.510;2023-01-29T08:55:29;101306.47;;;8.60;54.53
21988;BME280;11158;53.404;-1.510;2023-01-29T08:57:55;101306.19;;;8.99;54.33
21988;BME280;11158;53.404;-1.510;2023-01-29T09:00:24;101313.97;;;9.28;53.59
21988;BME280;11158;53.404;-1.510;2023-01-29T09:02:50;101307.53;;;8.67;54.18
21988;BME280;11158;53.404;-1.510;2023-01-29T09:05:16;101302.84;;;8.51;54.89
21988;BME280;11158;53.404;-1.510;2023-01-29T09:07:41;101311.06;;;8.40;55.33
21988;BME280;11158;53.404;-1.510;2023-01-29T09:10:07;101315.28;;;9.24;53.17
21988;BME280;11158;53.404;-1.510;2023-01-29T09:12:33;101312.03;;;8.67;53.93
21988;BME280;11158;53.404;-1.510;2023-01-29T09:14:59;101316.41;;;9.04;53.91
21988;BME280;11158;53.404;-1.510;2023-01-29T09:17:24;101311.94;;;9.48;52.48
21988;BME280;11158;53.404;-1.510;2023-01-29T09:19:50;101303.91;;;9.04;53.45
21988;BME280;11158;53.404;-1.510;2023-01-29T09:22:18;101293.72;;;9.61;52.34
21988;BME280;11158;53.404;-1.510;2023-01-29T09:24:44;101292.22;;;10.54;49.94
21988;BME280;11158;53.404;-1.510;2023-01-29T09:27:10;101288.50;;;11.30;47.68
21988;BME280;11158;53.404;-1.510;2023-01-29T09:29:36;101289.50;;;11.21;47.45
21988;BME280;11158;53.404;-1.510;2023-01-29T09:32:03;101284.63;;;11.57;46.91
21988;BME280;11158;53.404;-1.510;2023-01-29T09:34:29;101276.97;;;10.46;48.23
21988;BME280;11158;53.404;-1.510;2023-01-29T09:36:55;101270.53;;;10.22;50.06
21988;BME280;11158;53.404;-1.510;2023-01-29T09:39:20;101273.16;;;10.14;49.99
21988;BME280;11158;53.404;-1.510;2023-01-29T09:42:06;101267.41;;;10.01;50.10
21988;BME280;11158;53.404;-1.510;2023-01-29T09:47:18;101247.91;;;10.43;49.37
21988;BME280;11158;53.404;-1.510;2023-01-29T09:49:55;101251.69;;;9.63;51.50
21988;BME280;11158;53.404;-1.510;2023-01-29T09:52:29;101239.63;;;9.85;50.24
21988;BME280;11158;53.404;-1.510;2023-01-29T09:55:21;101249.31;;;10.80;49.73
21988;BME280;11158;53.404;-1.510;2023-01-29T09:57:52;101254.25;;;10.07;50.53
21988;BME280;11158;53.404;-1.510;2023-01-29T10:00:25;101254.13;;;10.60;49.30
21988;BME280;11158;53.404;-1.510;2023-01-29T10:08:58;101246.25;;;10.50;50.09
21988;BME280;11158;53.404;-1.510;2023-01-29T10:25:40;101246.72;;;10.03;51.52
21988;BME280;11158;53.404;-1.510;2023-01-29T10:28:40;101260.59;;;9.72;52.43
21988;BME280;11158;53.404;-1.510;2023-01-29T10:31:08;101257.72;;;10.00;51.54
21988;BME280;11158;53.404;-1.510;2023-01-29T10:33:42;101249.69;;;11.09;48.60
21988;BME280;11158;53.404;-1.510;2023-01-29T10:36:14;101257.59;;;9.75;51.32
21988;BME280;11158;53.404;-1.510;2023-01-29T10:38:44;101244.03;;;10.37;50.67
21988;BME280;11158;53.404;-1.510;2023-01-29T10:41:20;101232.50;;;10.37;49.72
21988;BME280;11158;53.404;-1.510;2023-01-29T10:43:56;101219.59;;;10.91;48.94
21988;BME280;11158;53.404;-1.510;2023-01-29T10:46:30;101202.84;;;10.64;48.65
21988;BME280;11158;53.404;-1.510;2023-01-29T10:54:59;101199.59;;;9.85;51.14
21988;BME280;11158;53.404;-1.510;2023-01-29T11:00:34;101192.16;;;10.56;49.56
21988;BME280;11158;53.404;-1.510;2023-01-29T11:03:21;101197.88;;;9.76;52.04
21988;BME280;11158;53.404;-1.510;2023-01-29T11:08:24;101200.00;;;10.07;50.64
21988;BME280;11158;53.404;-1.510;2023-01-29T11:11:33;101196.06;;;9.85;52.09
21988;BME280;11158;53.404;-1.510;2023-01-29T11:14:03;101206.44;;;9.62;51.63
21988;BME280;11158;53.404;-1.510;2023-01-29T11:16:40;101184.09;;;8.67;54.29
21988;BME280;11158;53.404;-1.510;2023-01-29T11:19:06;101186.91;;;8.65;54.47
21988;BME280;11158;53.404;-1.510;2023-01-29T11:21:49;101187.28;;;8.70;54.67
21988;BME280;11158;53.404;-1.510;2023-01-29T11:24:15;101181.44;;;9.97;52.01
21988;BME280;11158;53.404;-1.510;2023-01-29T11:26:45;101174.28;;;10.14;50.47
21988;BME280;11158;53.404;-1.510;2023-01-29T11:32:13;101185.06;;;9.88;51.69
21988;BME280;11158;53.404;-1.510;2023-01-29T11:37:42;101170.06;;;9.00;54.82
21988;BME280;11158;53.404;-1.510;2023-01-29T11:42:43;101169.75;;;10.90;50.46
21988;BME280;11158;53.404;-1.510;2023-01-29T11:45:25;101164.38;;;10.41;51.76
21988;BME280;11158;53.404;-1.510;2023-01-29T11:47:58;101159.34;;;11.36;49.19
21988;BME280;11158;53.404;-1.510;2023-01-29T11:50:33;101139.59;;;11.37;49.00
21988;BME280;11158;53.404;-1.510;2023-01-29T11:52:59;101139.94;;;10.19;51.67
21988;BME280;11158;53.404;-1.510;2023-01-29T11:55:36;101157.88;;;9.93;53.33
21988;BME280;11158;53.404;-1.510;2023-01-29T11:58:32;101152.84;;;10.40;52.56
21988;BME280;11158;53.404;-1.510;2023-01-29T12:00:59;101157.03;;;10.92;50.71
21988;BME280;11158;53.404;-1.510;2023-01-29T12:03:54;101151.84;;;10.41;52.52
21988;BME280;11158;53.404;-1.510;2023-01-29T12:06:35;101153.34;;;10.60;52.35
21988;BME280;11158;53.404;-1.510;2023-01-29T12:09:09;101160.72;;;10.50;52.73
21988;BME280;11158;53.404;-1.510;2023-01-29T12:11:38;101137.53;;;10.00;54.34
21988;BME280;11158;53.404;-1.510;2023-01-29T12:14:26;101114.50;;;9.99;54.34
21988;BME280;11158;53.404;-1.510;2023-01-29T12:22:02;101099.84;;;10.27;53.70
21988;BME280;11158;53.404;-1.510;2023-01-29T12:24:34;101109.91;;;10.91;53.00
21988;BME280;11158;53.404;-1.510;2023-01-29T12:27:09;101095.00;;;9.64;55.31
21988;BME280;11158;53.404;-1.510;2023-01-29T12:30:00;101092.97;;;9.15;56.99
21988;BME280;11158;53.404;-1.510;2023-01-29T12:32:47;101080.88;;;9.80;55.67
21988;BME280;11158;53.404;-1.510;2023-01-29T12:35:32;101100.28;;;9.39;57.09
21988;BME280;11158;53.404;-1.510;2023-01-29T12:40:45;101089.19;;;9.69;55.46
21988;BME280;11158;53.404;-1.510;2023-01-29T12:43:17;101083.47;;;10.06;54.12
21988;BME280;11158;53.404;-1.510;2023-01-29T12:45:47;101057.66;;;10.31;53.90
21988;BME280;11158;53.404;-1.510;2023-01-29T12:48:22;101069.78;;;10.83;53.05
21988;BME280;11158;53.404;-1.510;2023-01-29T12:50:49;101060.81;;;10.59;53.43
21988;BME280;11158;53.404;-1.510;2023-01-29T12:55:57;101057.78;;;9.46;56.31
21988;BME280;11158;53.404;-1.510;2023-01-29T12:58:32;101060.69;;;9.77;56.79
21988;BME280;11158;53.404;-1.510;2023-01-29T13:01:14;101051.63;;;9.54;57.42
21988;BME280;11158;53.404;-1.510;2023-01-29T13:06:17;101073.03;;;9.70;57.04
21988;BME280;11158;53.404;-1.510;2023-01-29T13:09:05;101062.16;;;10.39;55.25
21988;BME280;11158;53.404;-1.510;2023-01-29T13:11:50;101061.06;;;9.06;58.74
21988;BME280;11158;53.404;-1.510;2023-01-29T13:19:49;101045.28;;;9.55;57.94
21988;BME280;11158;53.404;-1.510;2023-01-29T13:22:20;101047.06;;;9.04;59.37
21988;BME280;11158;53.404;-1.510;2023-01-29T13:24:48;101041.03;;;9.86;57.41
21988;BME280;11158;53.404;-1.510;2023-01-29T13:27:21;101045.19;;;9.30;58.85
21988;BME280;11158;53.404;-1.510;2023-01-29T13:29:48;101039.28;;;9.18;59.44
21988;BME280;11158;53.404;-1.510;2023-01-29T13:32:20;101021.47;;;9.70;57.99
21988;BME280;11158;53.404;-1.510;2023-01-29T13:34:49;101020.94;;;9.15;59.44
21988;BME280;11158;53.404;-1.510;2023-01-29T13:37:21;101012.13;;;9.15;59.58
21988;BME280;11158;53.404;-1.510;2023-01-29T13:39:50;101018.00;;;8.92;60.63
21988;BME280;11158;53.404;-1.510;2023-01-29T13:42:42;101034.59;;;9.47;58.58
21988;BME280;11158;53.404;-1.510;2023-01-29T13:45:19;101037.00;;;8.97;60.50
21988;BME280;11158;53.404;-1.510;2023-01-29T13:47:47;101039.75;;;9.48;59.36
21988;BME280;11158;53.404;-1.510;2023-01-29T13:50:50;101033.84;;;9.79;59.04
21988;BME280;11158;53.404;-1.510;2023-01-29T13:53:20;101030.53;;;10.75;56.16
21988;BME280;11158;53.404;-1.510;2023-01-29T13:55:47;101020.00;;;10.74;55.95
21988;BME280;11158;53.404;-1.510;2023-01-29T13:58:18;101020.22;;;10.47;56.76
21988;BME280;11158;53.404;-1.510;2023-01-29T14:01:02;101007.97;;;10.86;55.84
21988;BME280;11158;53.404;-1.510;2023-01-29T14:05:59;101015.34;;;10.59;56.50
21988;BME280;11158;53.404;-1.510;2023-01-29T14:13:40;100991.34;;;10.99;55.39
21988;BME280;11158;53.404;-1.510;2023-01-29T14:18:49;100985.59;;;11.49;54.05
21988;BME280;11158;53.404;-1.510;2023-01-29T14:21:27;100981.09;;;11.19;54.80
21988;BME280;11158;53.404;-1.510;2023-01-29T14:32:31;100960.78;;;11.64;52.98
21988;BME280;11158;53.404;-1.510;2023-01-29T14:34:47;100948.09;;;11.81;52.47
21988;BME280;11158;53.404;-1.510;2023-01-29T14:39:47;100942.97;;;11.08;54.05
21988;BME280;11158;53.404;-1.510;2023-01-29T14:42:33;100936.25;;;11.21;53.94
21988;BME280;11158;53.404;-1.510;2023-01-29T14:47:53;100934.44;;;10.74;54.19
21988;BME280;11158;53.404;-1.510;2023-01-29T14:58:58;100923.31;;;11.32;52.67
21988;BME280;11158;53.404;-1.510;2023-01-29T15:01:36;100910.34;;;11.67;52.49
21988;BME280;11158;53.404;-1.510;2023-01-29T15:06:37;100891.06;;;11.26;53.38
21988;BME280;11158;53.404;-1.510;2023-01-29T15:09:12;100893.94;;;11.70;52.46
21988;BME280;11158;53.404;-1.510;2023-01-29T15:11:54;100893.31;;;9.86;58.26
21988;BME280;11158;53.404;-1.510;2023-01-29T15:14:38;100874.03;;;10.56;56.58
21988;BME280;11158;53.404;-1.510;2023-01-29T15:19:44;100866.53;;;10.52;56.35
21988;BME280;11158;53.404;-1.510;2023-01-29T15:22:16;100861.41;;;10.81;55.91
21988;BME280;11158;53.404;-1.510;2023-01-29T15:24:45;100842.88;;;10.24;56.77
21988;BME280;11158;53.404;-1.510;2023-01-29T15:27:13;100827.97;;;10.21;57.74